createdAt,value
2018-01-16T00:00:18.933Z,945.8
2018-01-16T00:01:20.584Z,945.8
2018-01-16T00:02:22.237Z,945.7
2018-01-16T00:03:23.888Z,945.7
2018-01-16T00:04:25.531Z,945.6
2018-01-16T00:05:27.200Z,945.6
2018-01-16T00:06:28.851Z,945.6
2018-01-16T00:07:30.489Z,945.6
2018-01-16T00:08:32.140Z,945.6
2018-01-16T00:09:33.778Z,945.6
2018-01-16T00:10:35.432Z,945.6
2018-01-16T00:11:37.130Z,945.6
2018-01-16T00:12:38.774Z,945.6
2018-01-16T00:13:40.422Z,945.7
2018-01-16T00:14:42.073Z,945.7
2018-01-16T00:15:43.720Z,945.6
2018-01-16T00:16:45.365Z,945.6
2018-01-16T00:17:47.023Z,945.6
2018-01-16T00:18:48.673Z,945.6
2018-01-16T00:19:50.315Z,945.6
2018-01-16T00:20:51.961Z,945.6
2018-01-16T00:21:53.595Z,945.5
2018-01-16T00:22:55.240Z,945.5
2018-01-16T00:23:56.887Z,945.6
2018-01-16T00:24:58.548Z,945.5
2018-01-16T00:26:01.195Z,945.5
2018-01-16T00:27:02.856Z,945.5
2018-01-16T00:28:04.497Z,945.5
2018-01-16T00:29:06.135Z,945.5
2018-01-16T00:30:07.790Z,945.5
2018-01-16T00:31:09.438Z,945.4
2018-01-16T00:32:11.091Z,945.4
2018-01-16T00:33:12.734Z,945.4
2018-01-16T00:34:14.387Z,945.3
2018-01-16T00:35:16.030Z,945.4
2018-01-16T00:36:17.678Z,945.3
2018-01-16T00:37:19.326Z,945.3
2018-01-16T00:38:20.976Z,945.3
2018-01-16T00:39:22.620Z,945.2
2018-01-16T00:40:24.272Z,945.3
2018-01-16T00:41:25.915Z,945.3
2018-01-16T00:42:27.562Z,945.2
2018-01-16T00:43:29.211Z,945.3
2018-01-16T00:44:30.861Z,945.3
2018-01-16T00:45:32.506Z,945.3
2018-01-16T00:46:34.160Z,945.3
2018-01-16T00:47:35.805Z,945.4
2018-01-16T00:48:37.453Z,945.4
2018-01-16T00:49:39.161Z,945.3
2018-01-16T00:50:40.800Z,945.3
2018-01-16T00:51:42.448Z,945.3
2018-01-16T00:52:44.091Z,945.4
2018-01-16T00:53:45.737Z,945.5
2018-01-16T00:54:47.389Z,945.5
2018-01-16T00:55:49.041Z,945.5
2018-01-16T00:56:50.694Z,945.4
2018-01-16T00:57:52.341Z,945.5
2018-01-16T00:58:54.015Z,945.5
2018-01-16T00:59:55.701Z,945.6
2018-01-16T01:00:57.350Z,945.6
2018-01-16T01:01:58.995Z,945.6
2018-01-16T01:03:00.637Z,945.6
2018-01-16T01:04:02.285Z,945.5
2018-01-16T01:05:03.939Z,945.5
2018-01-16T01:06:05.583Z,945.5
2018-01-16T01:07:07.239Z,945.5
2018-01-16T01:08:08.886Z,945.5
2018-01-16T01:09:10.535Z,945.6
2018-01-16T01:10:12.175Z,945.6
2018-01-16T01:11:13.821Z,945.5
2018-01-16T01:12:15.469Z,945.5
2018-01-16T01:13:17.113Z,945.6
2018-01-16T01:14:18.753Z,945.6
2018-01-16T01:15:20.412Z,945.7
2018-01-16T01:16:22.159Z,945.7
2018-01-16T01:17:23.792Z,945.7
2018-01-16T01:18:25.482Z,945.6
2018-01-16T01:19:27.122Z,945.7
2018-01-16T01:20:28.767Z,945.7
2018-01-16T01:21:30.413Z,945.8
2018-01-16T01:22:32.059Z,945.8
2018-01-16T01:23:33.731Z,945.8
2018-01-16T01:24:35.379Z,945.8
2018-01-16T01:25:37.033Z,945.8
2018-01-16T01:26:38.671Z,945.9
2018-01-16T01:27:40.313Z,945.8
2018-01-16T01:28:41.995Z,945.9
2018-01-16T01:29:43.642Z,945.9
2018-01-16T01:30:45.282Z,945.9
2018-01-16T01:31:46.940Z,945.9
2018-01-16T01:32:48.605Z,945.9
2018-01-16T01:33:50.265Z,946.0
2018-01-16T01:34:51.915Z,946.0
2018-01-16T01:35:53.569Z,946.1
2018-01-16T01:36:55.209Z,946.1
2018-01-16T01:37:56.876Z,946.1
2018-01-16T01:38:58.509Z,946.1
2018-01-16T01:40:00.168Z,946.2
2018-01-16T01:41:01.807Z,946.2
2018-01-16T01:42:03.457Z,946.2
2018-01-16T01:43:05.104Z,946.1
2018-01-16T01:44:06.759Z,946.1
2018-01-16T01:45:08.417Z,946.1
2018-01-16T01:46:10.061Z,946.2
2018-01-16T01:47:11.707Z,946.2
2018-01-16T01:48:13.345Z,946.1
2018-01-16T01:49:14.991Z,946.1
2018-01-16T01:50:16.641Z,946.1
2018-01-16T01:51:18.320Z,946.1
2018-01-16T01:52:19.967Z,946.1
2018-01-16T01:53:21.614Z,946.1
2018-01-16T01:54:23.263Z,946.2
2018-01-16T01:55:24.897Z,946.2
2018-01-16T01:56:26.541Z,946.2
2018-01-16T01:57:28.186Z,946.2
2018-01-16T01:58:29.837Z,946.1
2018-01-16T01:59:31.489Z,946.2
2018-01-16T02:00:33.131Z,946.2
2018-01-16T02:01:34.780Z,946.2
2018-01-16T02:02:36.560Z,946.2
2018-01-16T02:03:38.206Z,946.3
2018-01-16T02:04:39.837Z,946.3
2018-01-16T02:05:41.499Z,946.3
2018-01-16T02:06:43.150Z,946.3
2018-01-16T02:07:44.803Z,946.3
2018-01-16T02:08:46.452Z,946.3
2018-01-16T02:09:48.099Z,946.3
2018-01-16T02:10:49.748Z,946.3
2018-01-16T02:11:51.404Z,946.3
2018-01-16T02:12:53.072Z,946.3
2018-01-16T02:13:54.718Z,946.3
2018-01-16T02:14:56.364Z,946.4
2018-01-16T02:15:58.012Z,946.3
2018-01-16T02:16:59.659Z,946.4
2018-01-16T02:18:01.306Z,946.4
2018-01-16T02:19:02.995Z,946.4
2018-01-16T02:20:04.643Z,946.4
2018-01-16T02:21:06.286Z,946.4
2018-01-16T02:22:07.939Z,946.3
2018-01-16T02:23:09.596Z,946.4
2018-01-16T02:24:11.240Z,946.3
2018-01-16T02:25:12.877Z,946.3
2018-01-16T02:26:14.546Z,946.2
2018-01-16T02:27:16.194Z,946.3
2018-01-16T02:28:17.852Z,946.3
2018-01-16T02:29:19.495Z,946.3
2018-01-16T02:30:21.141Z,946.3
2018-01-16T02:31:22.822Z,946.3
2018-01-16T02:32:24.470Z,946.2
2018-01-16T02:33:26.106Z,946.2
2018-01-16T02:34:27.761Z,946.2
2018-01-16T02:35:29.409Z,946.2
2018-01-16T02:36:31.054Z,946.2
2018-01-16T02:37:32.703Z,946.2
2018-01-16T02:38:34.348Z,946.1
2018-01-16T02:39:36.016Z,946.1
2018-01-16T02:40:37.643Z,946.0
2018-01-16T02:41:39.305Z,945.9
2018-01-16T02:42:40.962Z,945.8
2018-01-16T02:43:42.598Z,945.9
2018-01-16T02:44:44.252Z,945.9
2018-01-16T02:45:45.904Z,945.9
2018-01-16T02:46:47.545Z,945.9
2018-01-16T02:47:49.195Z,945.9
2018-01-16T02:48:50.843Z,945.9
2018-01-16T02:49:52.488Z,945.9
2018-01-16T02:50:54.131Z,945.9
2018-01-16T02:51:55.775Z,945.9
2018-01-16T02:52:57.440Z,945.9
2018-01-16T02:53:59.080Z,945.8
2018-01-16T02:55:00.728Z,945.8
2018-01-16T03:01:20.028Z,945.8
2018-01-16T03:02:21.671Z,945.8
2018-01-16T03:03:23.314Z,945.8
2018-01-16T03:04:24.961Z,945.7
2018-01-16T03:05:26.606Z,945.8
2018-01-16T03:06:28.252Z,945.8
2018-01-16T03:07:29.903Z,945.8
2018-01-16T03:08:31.547Z,945.8
2018-01-16T03:09:33.195Z,945.8
2018-01-16T03:10:34.840Z,945.8
2018-01-16T03:11:36.497Z,945.7
2018-01-16T03:12:38.140Z,945.6
2018-01-16T03:13:39.790Z,945.6
2018-01-16T03:14:41.432Z,945.7
2018-01-16T03:15:43.075Z,945.6
2018-01-16T03:16:44.725Z,945.7
2018-01-16T03:17:46.365Z,945.7
2018-01-16T03:18:48.011Z,945.6
2018-01-16T03:19:49.660Z,945.7
2018-01-16T03:20:51.301Z,945.6
2018-01-16T03:21:52.947Z,945.6
2018-01-16T03:22:54.605Z,945.4
2018-01-16T03:23:56.249Z,945.5
2018-01-16T03:24:57.890Z,945.4
2018-01-16T03:25:59.533Z,945.3
2018-01-16T03:27:01.219Z,945.2
2018-01-16T03:28:02.859Z,945.2
2018-01-16T03:29:04.505Z,945.2
2018-01-16T03:30:06.157Z,945.2
2018-01-16T03:31:07.800Z,945.2
2018-01-16T03:32:09.441Z,945.2
2018-01-16T03:33:11.088Z,945.3
2018-01-16T03:34:12.753Z,945.3
2018-01-16T03:35:14.371Z,945.3
2018-01-16T03:36:16.018Z,945.3
2018-01-16T03:37:17.671Z,945.3
2018-01-16T03:38:19.315Z,945.3
2018-01-16T03:39:20.946Z,945.3
2018-01-16T03:40:22.588Z,945.3
2018-01-16T03:41:24.242Z,945.3
2018-01-16T03:42:25.879Z,945.3
2018-01-16T03:43:27.533Z,945.3
2018-01-16T03:44:29.191Z,945.3
2018-01-16T03:45:30.838Z,945.3
2018-01-16T03:46:32.482Z,945.3
2018-01-16T03:47:34.119Z,945.3
2018-01-16T03:48:35.775Z,945.3
2018-01-16T03:49:37.420Z,945.2
2018-01-16T03:50:39.068Z,945.2
2018-01-16T03:51:40.713Z,945.2
2018-01-16T03:52:42.359Z,945.2
2018-01-16T03:53:44.005Z,945.2
2018-01-16T03:54:45.660Z,945.2
2018-01-16T03:55:47.312Z,945.2
2018-01-16T03:56:48.963Z,945.1
2018-01-16T03:57:50.603Z,945.1
2018-01-16T03:58:52.250Z,945.1
2018-01-16T03:59:53.904Z,945.0
2018-01-16T04:00:55.555Z,944.9
2018-01-16T04:01:57.200Z,944.9
2018-01-16T04:02:58.845Z,944.9
2018-01-16T04:04:00.494Z,944.9
2018-01-16T04:05:02.144Z,944.9
2018-01-16T04:06:03.805Z,945.0
2018-01-16T04:07:05.448Z,944.9
2018-01-16T04:08:07.155Z,944.9
2018-01-16T04:09:08.798Z,945.0
2018-01-16T04:10:10.445Z,944.9
2018-01-16T04:11:12.092Z,944.9
2018-01-16T04:12:13.756Z,944.9
2018-01-16T04:13:15.412Z,944.7
2018-01-16T04:14:17.051Z,944.8
2018-01-16T04:15:18.688Z,944.8
2018-01-16T04:16:20.332Z,944.8
2018-01-16T04:17:21.971Z,944.8
2018-01-16T04:18:23.647Z,944.8
2018-01-16T04:19:25.297Z,944.7
2018-01-16T04:20:26.939Z,944.7
2018-01-16T04:21:28.596Z,944.7
2018-01-16T04:22:30.228Z,944.7
2018-01-16T04:23:31.875Z,944.8
2018-01-16T04:24:33.525Z,944.7
2018-01-16T04:25:35.175Z,944.8
2018-01-16T04:26:36.816Z,944.7
2018-01-16T04:27:38.481Z,944.8
2018-01-16T04:28:40.180Z,944.7
2018-01-16T04:29:41.827Z,944.7
2018-01-16T04:30:43.470Z,944.6
2018-01-16T04:31:45.120Z,944.7
2018-01-16T04:32:46.758Z,944.7
2018-01-16T04:33:48.467Z,944.6
2018-01-16T04:34:50.117Z,944.7
2018-01-16T04:35:51.779Z,944.6
2018-01-16T04:36:53.429Z,944.5
2018-01-16T04:37:55.074Z,944.5
2018-01-16T04:38:56.751Z,944.5
2018-01-16T04:39:58.397Z,944.5
2018-01-16T04:41:00.045Z,944.5
2018-01-16T04:42:01.703Z,944.6
2018-01-16T04:43:03.342Z,944.5
2018-01-16T04:44:04.987Z,944.5
2018-01-16T04:45:06.629Z,944.4
2018-01-16T04:46:08.281Z,944.5
2018-01-16T04:47:09.952Z,944.4
2018-01-16T04:48:11.635Z,944.4
2018-01-16T04:49:13.276Z,944.4
2018-01-16T04:50:14.925Z,944.4
2018-01-16T04:51:16.566Z,944.3
2018-01-16T04:52:18.208Z,944.3
2018-01-16T04:53:19.871Z,944.3
2018-01-16T04:54:21.503Z,944.3
2018-01-16T04:55:23.215Z,944.3
2018-01-16T04:56:24.849Z,944.3
2018-01-16T04:57:26.512Z,944.3
2018-01-16T04:58:28.161Z,944.3
2018-01-16T04:59:29.836Z,944.3
2018-01-16T05:00:31.479Z,944.3
2018-01-16T05:01:33.174Z,944.2
2018-01-16T05:02:34.816Z,944.3
2018-01-16T05:03:36.467Z,944.3
2018-01-16T05:04:38.098Z,944.4
2018-01-16T05:05:39.748Z,944.3
2018-01-16T05:06:41.423Z,944.4
2018-01-16T05:07:43.069Z,944.3
2018-01-16T05:08:44.715Z,944.4
2018-01-16T05:09:46.355Z,944.4
2018-01-16T05:10:48.007Z,944.4
2018-01-16T05:11:49.645Z,944.3
2018-01-16T05:12:51.287Z,944.4
2018-01-16T05:13:52.958Z,944.4
2018-01-16T05:14:54.620Z,944.4
2018-01-16T05:15:56.268Z,944.4
2018-01-16T05:16:57.926Z,944.4
2018-01-16T05:17:59.587Z,944.4
2018-01-16T05:19:01.233Z,944.4
2018-01-16T05:20:02.880Z,944.4
2018-01-16T05:21:04.519Z,944.3
2018-01-16T05:22:06.171Z,944.4
2018-01-16T05:23:07.828Z,944.4
2018-01-16T05:24:09.499Z,944.5
2018-01-16T05:25:11.197Z,944.5
2018-01-16T05:26:12.838Z,944.5
2018-01-16T05:27:14.484Z,944.5
2018-01-16T05:28:16.130Z,944.5
2018-01-16T05:29:17.788Z,944.5
2018-01-16T05:30:19.505Z,944.4
2018-01-16T05:31:21.155Z,944.4
2018-01-16T05:32:22.804Z,944.4
2018-01-16T05:33:24.456Z,944.4
2018-01-16T05:34:26.092Z,944.4
2018-01-16T05:35:27.748Z,944.4
2018-01-16T05:36:29.403Z,944.3
2018-01-16T05:37:31.059Z,944.3
2018-01-16T05:38:32.711Z,944.4
2018-01-16T05:39:34.366Z,944.3
2018-01-16T05:40:36.014Z,944.4
2018-01-16T05:41:37.662Z,944.4
2018-01-16T05:42:39.311Z,944.4
2018-01-16T05:43:40.964Z,944.3
2018-01-16T05:44:42.616Z,944.3
2018-01-16T05:45:44.268Z,944.4
2018-01-16T05:46:45.918Z,944.4
2018-01-16T05:47:47.575Z,944.4
2018-01-16T05:48:49.220Z,944.4
2018-01-16T05:49:51.750Z,944.4
2018-01-16T05:50:52.476Z,944.4
2018-01-16T05:51:54.117Z,944.4
2018-01-16T05:52:55.790Z,944.4
2018-01-16T05:53:57.441Z,944.4
2018-01-16T05:54:59.098Z,944.4
2018-01-16T05:56:00.745Z,944.4
2018-01-16T05:57:02.385Z,944.5
2018-01-16T05:58:04.041Z,944.5
2018-01-16T05:59:05.679Z,944.5
2018-01-16T06:00:07.366Z,944.4
2018-01-16T06:01:09.041Z,944.5
2018-01-16T06:02:10.688Z,944.5
2018-01-16T06:03:12.344Z,944.5
2018-01-16T06:04:13.999Z,944.6
2018-01-16T06:05:15.647Z,944.5
2018-01-16T06:06:17.299Z,944.5
2018-01-16T06:07:18.943Z,944.5
2018-01-16T06:08:20.595Z,944.6
2018-01-16T06:09:22.246Z,944.4
2018-01-16T06:10:23.895Z,944.5
2018-01-16T06:11:25.562Z,944.6
2018-01-16T06:12:27.202Z,944.6
2018-01-16T06:13:28.918Z,944.6
2018-01-16T06:14:30.578Z,944.6
2018-01-16T06:15:32.218Z,944.6
2018-01-16T06:16:33.992Z,944.6
2018-01-16T06:17:35.615Z,944.5
2018-01-16T06:18:37.263Z,944.5
2018-01-16T06:19:38.910Z,944.5
2018-01-16T06:20:40.556Z,944.5
2018-01-16T06:21:42.203Z,944.5
2018-01-16T06:22:43.856Z,944.6
2018-01-16T06:23:45.477Z,944.6
2018-01-16T06:24:47.138Z,944.5
2018-01-16T06:25:48.789Z,944.6
2018-01-16T06:26:50.437Z,944.5
2018-01-16T06:27:52.093Z,944.5
2018-01-16T06:28:53.755Z,944.6
2018-01-16T06:29:55.457Z,944.5
2018-01-16T06:30:57.096Z,944.6
2018-01-16T06:31:58.740Z,944.5
2018-01-16T06:33:00.391Z,944.5
2018-01-16T06:34:02.040Z,944.5
2018-01-16T06:35:03.682Z,944.5
2018-01-16T06:36:05.329Z,944.5
2018-01-16T06:37:06.976Z,944.5
2018-01-16T06:38:08.624Z,944.4
2018-01-16T06:39:10.258Z,944.4
2018-01-16T06:40:11.911Z,944.4
2018-01-16T06:41:13.568Z,944.4
2018-01-16T06:42:15.222Z,944.4
2018-01-16T06:43:16.869Z,944.4
2018-01-16T06:44:18.515Z,944.4
2018-01-16T06:45:20.170Z,944.3
2018-01-16T06:46:21.819Z,944.2
2018-01-16T06:47:23.480Z,944.2
2018-01-16T06:48:25.130Z,944.2
2018-01-16T06:49:26.784Z,944.2
2018-01-16T06:50:28.441Z,944.2
2018-01-16T06:51:30.087Z,944.2
2018-01-16T06:52:31.733Z,944.2
2018-01-16T06:53:33.396Z,944.2
2018-01-16T06:54:35.046Z,944.2
2018-01-16T07:01:01.191Z,944.2
2018-01-16T07:02:02.841Z,944.2
2018-01-16T07:03:04.485Z,944.2
2018-01-16T07:04:06.133Z,944.2
2018-01-16T07:05:07.795Z,944.2
2018-01-16T07:06:09.461Z,944.1
2018-01-16T07:07:11.110Z,944.1
2018-01-16T07:08:12.817Z,944.1
2018-01-16T07:09:14.466Z,944.2
2018-01-16T07:10:16.109Z,944.1
2018-01-16T07:11:17.761Z,944.1
2018-01-16T07:12:19.468Z,944.1
2018-01-16T07:13:21.107Z,944.1
2018-01-16T07:14:22.754Z,944.2
2018-01-16T07:15:24.417Z,944.2
2018-01-16T07:16:26.074Z,944.2
2018-01-16T07:17:27.722Z,944.2
2018-01-16T07:18:29.378Z,944.2
2018-01-16T07:19:31.028Z,944.2
2018-01-16T07:20:32.681Z,944.1
2018-01-16T07:21:34.332Z,944.1
2018-01-16T07:22:35.988Z,944.1
2018-01-16T07:23:37.641Z,944.2
2018-01-16T07:24:39.284Z,944.2
2018-01-16T07:25:40.939Z,944.2
2018-01-16T07:26:42.599Z,944.1
2018-01-16T07:27:44.252Z,944.0
2018-01-16T07:28:45.899Z,944.1
2018-01-16T07:29:47.543Z,944.1
2018-01-16T07:30:49.232Z,944.2
2018-01-16T07:31:50.827Z,944.2
2018-01-16T07:32:52.477Z,944.2
2018-01-16T07:33:54.125Z,944.2
2018-01-16T07:34:55.780Z,944.2
2018-01-16T07:35:57.425Z,944.2
2018-01-16T07:36:59.149Z,944.1
2018-01-16T07:38:00.814Z,944.2
2018-01-16T07:39:02.475Z,944.2
2018-01-16T07:40:04.132Z,944.1
2018-01-16T07:41:05.786Z,944.1
2018-01-16T07:42:07.439Z,944.1
2018-01-16T07:43:09.087Z,944.0
2018-01-16T07:44:10.733Z,944.0
2018-01-16T07:45:12.390Z,944.0
2018-01-16T07:46:14.043Z,944.1
2018-01-16T07:47:15.723Z,944.1
2018-01-16T07:48:17.378Z,944.1
2018-01-16T07:49:19.011Z,944.1
2018-01-16T07:50:20.662Z,944.0
2018-01-16T07:51:22.312Z,944.1
2018-01-16T07:52:23.988Z,944.0
2018-01-16T07:53:25.629Z,944.1
2018-01-16T07:54:27.280Z,944.1
2018-01-16T07:55:28.936Z,944.0
2018-01-16T07:56:30.815Z,944.0
2018-01-16T07:57:32.477Z,944.1
2018-01-16T07:58:34.134Z,944.0
2018-01-16T07:59:35.778Z,944.1
2018-01-16T08:00:37.430Z,944.0
2018-01-16T08:01:39.082Z,944.0
2018-01-16T08:02:40.737Z,944.0
2018-01-16T08:03:42.390Z,944.1
2018-01-16T08:04:44.036Z,944.1
2018-01-16T08:05:45.685Z,944.0
2018-01-16T08:06:47.337Z,944.0
2018-01-16T08:07:48.985Z,944.0
2018-01-16T08:08:50.633Z,944.0
2018-01-16T08:09:52.292Z,944.1
2018-01-16T08:10:53.936Z,944.0
2018-01-16T08:11:55.593Z,944.0
2018-01-16T08:12:57.251Z,944.0
2018-01-16T08:13:58.902Z,944.0
2018-01-16T08:15:00.559Z,944.0
2018-01-16T08:16:02.208Z,944.0
2018-01-16T08:17:03.858Z,944.0
2018-01-16T08:18:05.507Z,944.0
2018-01-16T08:19:07.191Z,944.0
2018-01-16T08:20:08.849Z,944.0
2018-01-16T08:21:10.489Z,944.0
2018-01-16T08:22:12.138Z,944.0
2018-01-16T08:23:13.788Z,944.0
2018-01-16T08:24:15.442Z,944.0
2018-01-16T08:25:17.087Z,944.0
2018-01-16T08:26:18.737Z,943.9
2018-01-16T08:27:20.390Z,943.9
2018-01-16T08:28:22.035Z,943.9
2018-01-16T08:29:23.694Z,943.9
2018-01-16T08:30:25.348Z,944.0
2018-01-16T08:31:27.006Z,944.0
2018-01-16T08:32:28.652Z,943.9
2018-01-16T08:33:30.308Z,943.9
2018-01-16T08:34:31.972Z,943.9
2018-01-16T08:35:33.627Z,943.9
2018-01-16T08:36:35.281Z,944.0
2018-01-16T08:37:36.930Z,944.0
2018-01-16T08:38:38.574Z,944.0
2018-01-16T08:39:40.227Z,943.9
2018-01-16T08:40:41.888Z,944.0
2018-01-16T08:41:43.547Z,943.9
2018-01-16T08:42:45.193Z,943.9
2018-01-16T08:43:46.840Z,944.0
2018-01-16T08:44:48.508Z,944.0
2018-01-16T08:45:50.157Z,944.1
2018-01-16T08:46:51.802Z,944.1
2018-01-16T08:47:53.465Z,944.1
2018-01-16T08:48:55.120Z,944.0
2018-01-16T08:49:56.775Z,944.0
2018-01-16T08:50:58.429Z,944.0
2018-01-16T08:52:00.124Z,944.0
2018-01-16T08:53:01.739Z,944.0
2018-01-16T08:54:03.397Z,944.0
2018-01-16T08:55:05.058Z,944.0
2018-01-16T08:56:06.716Z,944.0
2018-01-16T08:57:08.368Z,943.9
2018-01-16T08:58:10.012Z,944.0
2018-01-16T08:59:11.664Z,943.8
2018-01-16T09:00:13.326Z,943.9
2018-01-16T09:01:14.973Z,943.9
2018-01-16T09:02:16.625Z,943.9
2018-01-16T09:03:18.276Z,943.9
2018-01-16T09:04:19.926Z,943.9
2018-01-16T09:05:21.590Z,944.0
2018-01-16T09:06:23.230Z,943.8
2018-01-16T09:07:24.885Z,943.8
2018-01-16T09:08:26.539Z,943.8
2018-01-16T09:09:28.193Z,943.7
2018-01-16T09:10:29.856Z,943.8
2018-01-16T09:11:31.502Z,943.8
2018-01-16T09:12:33.153Z,943.8
2018-01-16T09:13:34.890Z,943.9
2018-01-16T09:14:36.539Z,943.9
2018-01-16T09:15:38.191Z,943.9
2018-01-16T09:16:39.851Z,943.9
2018-01-16T09:17:41.503Z,943.9
2018-01-16T09:18:43.154Z,944.0
2018-01-16T09:19:44.810Z,943.9
2018-01-16T09:20:46.582Z,944.0
2018-01-16T09:21:48.238Z,944.0
2018-01-16T09:22:49.885Z,944.0
2018-01-16T09:23:51.544Z,944.1
2018-01-16T09:24:53.195Z,943.9
2018-01-16T09:25:54.852Z,944.1
2018-01-16T09:26:56.507Z,944.0
2018-01-16T09:27:58.166Z,944.0
2018-01-16T09:28:59.824Z,944.0
2018-01-16T09:30:02.468Z,943.9
2018-01-16T09:31:03.957Z,943.9
2018-01-16T09:32:05.623Z,943.9
2018-01-16T09:33:07.269Z,943.9
2018-01-16T09:34:08.922Z,943.9
2018-01-16T09:35:10.570Z,943.8
2018-01-16T09:36:12.222Z,943.8
2018-01-16T09:37:13.871Z,943.8
2018-01-16T09:38:15.557Z,943.8
2018-01-16T09:39:17.217Z,943.8
2018-01-16T09:40:18.868Z,943.9
2018-01-16T09:41:20.514Z,943.8
2018-01-16T09:42:22.176Z,943.8
2018-01-16T09:43:23.835Z,943.9
2018-01-16T09:44:25.484Z,943.9
2018-01-16T09:45:27.142Z,943.8
2018-01-16T09:46:28.803Z,943.8
2018-01-16T09:47:30.450Z,943.8
2018-01-16T09:48:32.106Z,943.9
2018-01-16T09:49:33.753Z,943.9
2018-01-16T09:50:35.401Z,943.9
2018-01-16T09:51:37.074Z,943.9
2018-01-16T09:52:38.833Z,943.8
2018-01-16T09:53:40.468Z,943.7
2018-01-16T09:54:42.127Z,943.9
2018-01-16T09:55:43.789Z,943.8
2018-01-16T09:56:45.443Z,943.8
2018-01-16T09:57:47.107Z,943.8
2018-01-16T09:58:48.771Z,943.8
2018-01-16T09:59:50.429Z,943.8
2018-01-16T10:00:52.101Z,943.8
2018-01-16T10:01:53.736Z,943.8
2018-01-16T10:02:55.409Z,943.8
2018-01-16T10:03:57.080Z,943.8
2018-01-16T10:04:58.697Z,943.7
2018-01-16T10:06:00.343Z,943.7
2018-01-16T10:07:01.998Z,943.8
2018-01-16T10:08:03.654Z,943.6
2018-01-16T10:09:05.304Z,943.7
2018-01-16T10:10:06.954Z,943.7
2018-01-16T10:11:08.608Z,943.7
2018-01-16T10:12:10.260Z,943.7
2018-01-16T10:13:11.940Z,943.7
2018-01-16T10:14:13.593Z,943.6
2018-01-16T10:15:15.246Z,943.6
2018-01-16T10:16:16.895Z,943.7
2018-01-16T10:17:18.538Z,943.6
2018-01-16T10:18:20.194Z,943.6
2018-01-16T10:19:21.837Z,943.6
2018-01-16T10:20:23.503Z,943.6
2018-01-16T10:21:25.150Z,943.6
2018-01-16T10:22:26.829Z,943.7
2018-01-16T10:23:28.484Z,943.7
2018-01-16T10:24:30.132Z,943.6
2018-01-16T10:25:31.783Z,943.5
2018-01-16T10:26:33.442Z,943.5
2018-01-16T10:27:35.103Z,943.5
2018-01-16T10:28:36.762Z,943.4
2018-01-16T10:29:38.441Z,943.4
2018-01-16T10:30:40.080Z,943.5
2018-01-16T10:31:41.719Z,943.5
2018-01-16T10:32:43.378Z,943.5
2018-01-16T10:33:45.028Z,943.5
2018-01-16T10:34:46.688Z,943.5
2018-01-16T10:35:48.389Z,943.5
2018-01-16T10:36:50.037Z,943.5
2018-01-16T10:37:51.686Z,943.6
2018-01-16T10:38:53.332Z,943.7
2018-01-16T10:39:54.986Z,943.6
2018-01-16T10:40:56.640Z,943.7
2018-01-16T10:41:58.300Z,943.7
2018-01-16T10:42:59.961Z,943.6
2018-01-16T10:44:01.616Z,943.7
2018-01-16T10:45:03.265Z,943.8
2018-01-16T10:46:04.927Z,943.7
2018-01-16T10:47:06.583Z,943.7
2018-01-16T10:48:08.237Z,943.7
2018-01-16T10:49:09.899Z,943.8
2018-01-16T10:50:11.563Z,943.8
2018-01-16T10:51:13.231Z,944.0
2018-01-16T10:52:14.877Z,943.9
2018-01-16T10:53:16.543Z,943.8
2018-01-16T10:54:18.209Z,944.0
2018-01-16T10:55:19.851Z,943.8
2018-01-16T11:01:51.374Z,943.7
2018-01-16T11:02:53.014Z,943.6
2018-01-16T11:03:54.665Z,943.7
2018-01-16T11:04:56.312Z,943.5
2018-01-16T11:05:57.976Z,943.6
2018-01-16T11:06:59.628Z,943.5
2018-01-16T11:08:01.274Z,943.6
2018-01-16T11:09:02.944Z,943.4
2018-01-16T11:10:04.597Z,943.5
2018-01-16T11:11:06.253Z,943.5
2018-01-16T11:12:07.904Z,943.6
2018-01-16T11:13:09.553Z,943.6
2018-01-16T11:14:11.206Z,943.6
2018-01-16T11:15:12.937Z,943.4
2018-01-16T11:16:14.620Z,943.6
2018-01-16T11:17:16.270Z,943.8
2018-01-16T11:18:17.922Z,943.9
2018-01-16T11:19:19.580Z,944.0
2018-01-16T11:20:28.109Z,944.4
2018-01-16T11:21:29.155Z,944.5
2018-01-16T11:22:30.814Z,944.6
2018-01-16T11:23:32.463Z,944.7
2018-01-16T11:24:34.105Z,944.7
2018-01-16T11:25:35.753Z,944.8
2018-01-16T11:26:37.401Z,944.8
2018-01-16T11:27:39.053Z,944.8
2018-01-16T11:28:40.704Z,944.7
2018-01-16T11:29:42.350Z,944.7
2018-01-16T11:30:44.000Z,944.7
2018-01-16T11:31:45.648Z,944.7
2018-01-16T11:32:47.316Z,944.7
2018-01-16T11:33:48.960Z,944.7
2018-01-16T11:34:50.613Z,944.7
2018-01-16T11:35:52.317Z,944.7
2018-01-16T11:36:53.976Z,944.8
2018-01-16T11:37:55.626Z,944.7
2018-01-16T11:38:57.275Z,944.7
2018-01-16T11:39:58.919Z,944.8
2018-01-16T11:41:00.581Z,944.8
2018-01-16T11:42:02.347Z,944.8
2018-01-16T11:43:03.996Z,944.8
2018-01-16T11:44:05.644Z,944.9
2018-01-16T11:45:07.296Z,944.8
2018-01-16T11:46:08.971Z,944.9
2018-01-16T11:47:10.619Z,944.9
2018-01-16T11:48:12.313Z,944.9
2018-01-16T11:49:13.957Z,944.9
2018-01-16T11:50:15.652Z,944.9
2018-01-16T11:51:17.252Z,944.9
2018-01-16T11:52:18.894Z,944.9
2018-01-16T11:53:20.539Z,944.9
2018-01-16T11:54:22.190Z,944.9
2018-01-16T11:55:23.830Z,944.9
2018-01-16T11:56:25.543Z,945.0
2018-01-16T11:57:27.230Z,944.9
2018-01-16T11:58:28.877Z,945.0
2018-01-16T11:59:30.526Z,944.9
2018-01-16T12:00:32.184Z,944.9
2018-01-16T12:01:33.858Z,945.0
2018-01-16T12:02:35.487Z,945.0
2018-01-16T12:03:37.147Z,945.0
2018-01-16T12:04:38.880Z,945.1
2018-01-16T12:05:40.541Z,945.0
2018-01-16T12:06:42.196Z,945.0
2018-01-16T12:07:44.567Z,945.2
2018-01-16T12:08:46.231Z,945.2
2018-01-16T12:09:47.897Z,945.2
2018-01-16T12:10:49.555Z,945.2
2018-01-16T12:11:51.209Z,945.2
2018-01-16T12:12:52.879Z,945.4
2018-01-16T12:13:54.535Z,945.4
2018-01-16T12:14:56.197Z,945.4
2018-01-16T12:15:57.840Z,945.5
2018-01-16T12:16:59.487Z,945.5
2018-01-16T12:18:01.143Z,945.5
2018-01-16T12:19:02.809Z,945.7
2018-01-16T12:20:04.514Z,945.7
2018-01-16T12:21:06.182Z,945.6
2018-01-16T12:22:07.830Z,945.5
2018-01-16T12:23:09.497Z,945.5
2018-01-16T12:24:11.159Z,945.6
2018-01-16T12:25:12.809Z,945.6
2018-01-16T12:26:14.457Z,945.5
2018-01-16T12:27:16.110Z,945.6
2018-01-16T12:28:17.772Z,945.5
2018-01-16T12:29:19.418Z,945.6
2018-01-16T12:30:21.059Z,945.6
2018-01-16T12:31:22.711Z,945.6
2018-01-16T12:32:24.364Z,945.5
2018-01-16T12:33:26.016Z,945.6
2018-01-16T12:34:27.668Z,945.6
2018-01-16T12:35:29.314Z,945.7
2018-01-16T12:36:30.966Z,945.7
2018-01-16T12:37:32.619Z,945.8
2018-01-16T12:38:34.275Z,945.7
2018-01-16T12:39:35.926Z,945.6
2018-01-16T12:40:37.593Z,945.6
2018-01-16T12:41:39.263Z,945.6
2018-01-16T12:42:40.923Z,945.6
2018-01-16T12:43:42.570Z,945.5
2018-01-16T12:44:44.228Z,945.5
2018-01-16T12:45:45.875Z,945.4
2018-01-16T12:46:47.524Z,945.5
2018-01-16T12:47:49.188Z,945.4
2018-01-16T12:48:50.836Z,945.4
2018-01-16T12:49:52.483Z,945.3
2018-01-16T12:50:54.139Z,945.3
2018-01-16T12:51:55.789Z,945.3
2018-01-16T12:52:57.453Z,945.3
2018-01-16T12:53:59.109Z,945.3
2018-01-16T12:55:00.790Z,945.2
2018-01-16T12:56:02.454Z,945.2
2018-01-16T12:57:04.104Z,945.2
2018-01-16T12:58:05.752Z,945.2
2018-01-16T12:59:07.419Z,945.3
2018-01-16T13:00:09.075Z,945.3
2018-01-16T13:01:10.731Z,945.3
2018-01-16T13:02:12.385Z,945.2
2018-01-16T13:03:14.039Z,945.3
2018-01-16T13:04:15.706Z,945.4
2018-01-16T13:05:17.365Z,945.3
2018-01-16T13:06:19.026Z,945.3
2018-01-16T13:07:20.716Z,945.3
2018-01-16T13:08:22.362Z,945.3
2018-01-16T13:09:24.023Z,945.3
2018-01-16T13:10:25.688Z,945.3
2018-01-16T13:11:27.344Z,945.4
2018-01-16T13:12:28.994Z,945.4
2018-01-16T13:13:30.645Z,945.3
2018-01-16T13:14:32.367Z,945.3
2018-01-16T13:15:34.024Z,945.3
2018-01-16T13:16:35.701Z,945.3
2018-01-16T13:17:37.353Z,945.3
2018-01-16T13:18:39.003Z,945.3
2018-01-16T13:19:40.674Z,945.4
2018-01-16T13:20:42.325Z,945.4
2018-01-16T13:21:43.965Z,945.4
2018-01-16T13:22:45.622Z,945.4
2018-01-16T13:23:47.310Z,945.4
2018-01-16T13:24:48.971Z,945.4
2018-01-16T13:25:50.626Z,945.4
2018-01-16T13:26:52.272Z,945.4
2018-01-16T13:27:53.921Z,945.4
2018-01-16T13:28:55.575Z,945.4
2018-01-16T13:29:57.226Z,945.5